Stations météo

réclame
Mon MeteoGroup
Heino aws, Pays-Bas (6278): Température de l'air & dewpoint: 12.11.2019 00:00:00 - 18.11.2019 00:00:00 (CET)Heino aws, Pays-Bas (6278): Température de l'air 5cm: 12.11.2019 00:00:00 - 18.11.2019 00:00:00 (CET)Heino aws, Pays-Bas (6278): Vitesse du vent & gusts: 12.11.2019 00:00:00 - 18.11.2019 00:00:00 (CET)Heino aws, Pays-Bas (6278): Direction du vent: 12.11.2019 00:00:00 - 18.11.2019 00:00:00 (CET)Heino aws, Pays-Bas (6278): Quantités de précipitations: 12.11.2019 00:00:00 - 18.11.2019 00:00:00 (CET)
Date & Time tt [°C] td [°C] tt 5cm [°C] ff [km/h] ff [knt] fx [km/h] fx [knt] dd rr [mm]
18.11.2019 00:00:00 4,6 3,4 4,4 11 6 22 12 N 0,8
17.11.2019 23:00:00 4,6 3,3 4,3 11 6 18 10 N 1,1
17.11.2019 22:00:00 4,6 2,8 4,3 7 4 14 8 NNE 0,3
17.11.2019 21:00:00 4,4 2,4 4,0 7 4 14 8 N 0,0
17.11.2019 20:00:00 4,4 2,6 4,0 7 4 14 8 N 0,0
17.11.2019 19:00:00 4,4 2,7 3,9 7 4 14 8 NNE 0,0
17.11.2019 18:00:00 4,6 2,7 3,7 7 4 11 6 N 0,0
17.11.2019 17:00:00 4,7 2,7 3,8 7 4 11 6 NNE 0,0
17.11.2019 16:00:00 5,5 3,0 5,1 7 4 11 6 NNE 0,0
17.11.2019 15:00:00 6,0 3,6 6,1 7 4 11 6 NNE 0,0
17.11.2019 14:00:00 5,9 3,3 6,1 7 4 11 6 NE 0,0
17.11.2019 13:00:00 5,5 3,2 6,3 7 4 11 6 NE 0,0
17.11.2019 12:00:00 4,0 2,6 5,2 7 4 18 10 E 0,0
17.11.2019 11:00:00 2,7 2,1 2,4 4 2 7 4 E 0,0
17.11.2019 10:00:00 1,5 1,1 0,6 0 0 11 6 N 0,0
17.11.2019 09:00:00 1,2 0,9 -0,3 7 4 11 6 SE 0,0
17.11.2019 08:00:00 1,5 1,0 -0,3 7 4 14 8 SE 0,0
17.11.2019 07:00:00 1,3 0,8 -1,9 4 2 11 6 SE 0,0
17.11.2019 06:00:00 1,5 1,2 -1,9 7 4 11 6 SE 0,0
17.11.2019 05:00:00 3,3 1,9 1,1 7 4 11 6 S 0,0
17.11.2019 04:00:00 4,7 2,3 4,2 7 4 14 8 S 0,0
17.11.2019 03:00:00 4,7 2,4 4,2 7 4 14 8 S 0,0
17.11.2019 02:00:00 4,9 2,6 4,2 7 4 18 10 S 0,0
17.11.2019 01:00:00 5,0 3,1 4,5 7 4 11 6 S 0,0
17.11.2019 00:00:00 4,8 2,7 4,2 7 4 11 6 S 0,0
16.11.2019 23:00:00 4,3 2,5 3,5 4 2 11 6 S 0,0
16.11.2019 22:00:00 4,1 2,3 2,4 7 4 11 6 SSW 0,0
16.11.2019 21:00:00 4,1 2,3 2,7 7 4 14 8 S 0,0
16.11.2019 20:00:00 3,9 2,6 2,9 7 4 18 10 S 0,0
16.11.2019 19:00:00 3,5 2,4 1,3 7 4 11 6 S 0,0
16.11.2019 18:00:00 3,9 2,4 2,4 7 4 11 6 S 0,0
16.11.2019 17:00:00 4,7 2,8 3,0 7 4 11 6 S 0,0
16.11.2019 16:00:00 5,6 3,3 4,9 7 4 14 8 S 0,0
16.11.2019 15:00:00 6,0 3,3 5,7 7 4 22 12 SSW 0,0
16.11.2019 14:00:00 6,1 3,1 5,8 11 6 18 10 SSW 0,0
16.11.2019 13:00:00 6,2 3,1 6,0 11 6 18 10 SSW 0,0
16.11.2019 12:00:00 5,8 3,3 5,7 11 6 22 12 SW 0,0
16.11.2019 11:00:00 5,1 2,7 5,1 11 6 18 10 SW 0,0
16.11.2019 10:00:00 4,2 2,4 3,8 11 6 22 12 SSW 0,0
16.11.2019 09:00:00 3,7 2,4 3,0 7 4 18 10 SW 0,0
16.11.2019 08:00:00 3,2 2,6 2,5 7 4 11 6 SSW 0,0
16.11.2019 07:00:00 2,5 2,4 2,0 0 0 4 2 N 0,0
16.11.2019 06:00:00 2,6 2,6 2,2 0 0 4 2 N 0,0
16.11.2019 05:00:00 3,0 2,7 2,6 4 2 11 6 W 0,0
16.11.2019 04:00:00 2,5 2,5 2,0 4 2 11 6 WSW 0,0
16.11.2019 03:00:00 2,1 2,1 1,7 4 2 4 2 ESE 0,0
16.11.2019 02:00:00 2,9 2,8 2,2 4 2 11 6 WSW 0,0
16.11.2019 01:00:00 2,5 2,5 2,3 4 2 4 2 SW 0,0
16.11.2019 00:00:00 1,6 1,6 0,6 0 0 11 6 N 0,0
15.11.2019 23:00:00 0,5 0,5 -1,3 4 2 4 2 ESE 0,0
15.11.2019 22:00:00 0,5 0,5 -1,5 0 0 4 2 N 0,0
15.11.2019 21:00:00 1,5 1,5 -0,5 0 0 4 2 N 0,0
15.11.2019 20:00:00 1,1 1,1 -0,6 4 2 11 6 E 0,0
15.11.2019 19:00:00 2,5 2,2 -0,5 4 2 11 6 E 0,0
15.11.2019 18:00:00 3,3 2,7 1,1 7 4 11 6 E 0,0
15.11.2019 17:00:00 4,4 3,3 3,9 7 4 22 12 E 0,0
15.11.2019 16:00:00 5,3 3,6 5,3 14 8 25 14 E 0,0
15.11.2019 15:00:00 5,2 3,3 5,2 14 8 25 14 E 0,0
15.11.2019 14:00:00 5,2 2,7 5,1 14 8 32 18 ENE 0,0
15.11.2019 13:00:00 5,0 2,6 4,9 14 8 25 14 E 0,0
15.11.2019 12:00:00 4,8 2,5 4,9 14 8 29 16 ENE 0,0
15.11.2019 11:00:00 4,7 2,4 4,7 22 12 32 18 ENE 0,0
15.11.2019 10:00:00 4,8 2,3 4,8 14 8 32 18 ENE 0,0
15.11.2019 09:00:00 4,5 2,1 4,3 14 8 29 16 ENE 0,0
15.11.2019 08:00:00 4,2 1,7 4,0 14 8 36 19 ENE 0,0
15.11.2019 07:00:00 4,1 1,6 3,9 18 10 32 18 ENE 0,0
15.11.2019 06:00:00 4,0 1,8 3,8 14 8 29 16 ENE 0,0
15.11.2019 05:00:00 3,8 1,9 3,6 14 8 29 16 ENE 0,0
15.11.2019 04:00:00 3,1 1,7 2,0 14 8 25 14 ENE 0,0
15.11.2019 03:00:00 3,4 1,8 2,8 14 8 25 14 ENE 0,0
15.11.2019 02:00:00 3,6 2,2 3,0 14 8 25 14 ENE 0,0
15.11.2019 01:00:00 3,6 2,3 2,8 11 6 14 8 ENE 0,0
15.11.2019 00:00:00 3,8 2,4 2,8 7 4 14 8 NE 0,0
14.11.2019 23:00:00 4,2 2,4 3,2 7 4 18 10 ENE 0,0
14.11.2019 22:00:00 4,7 2,8 3,4 11 6 18 10 ENE 0,0
14.11.2019 21:00:00 4,4 2,7 2,7 7 4 14 8 ENE 0,0
14.11.2019 20:00:00 5,3 3,2 4,3 7 4 14 8 ENE 0,0
14.11.2019 19:00:00 5,2 3,3 4,3 7 4 14 8 E 0,0
14.11.2019 18:00:00 6,4 3,6 5,7 11 6 18 10 E 0,0
14.11.2019 17:00:00 6,8 3,6 6,0 7 4 22 12 ESE 0,0
14.11.2019 16:00:00 7,0 3,7 6,6 14 8 25 14 E 0,0
14.11.2019 15:00:00 7,7 3,7 7,5 11 6 18 10 ESE 0,0
14.11.2019 14:00:00 7,6 3,6 7,7 11 6 22 12 ESE 0,0
14.11.2019 13:00:00 7,3 3,7 8,0 11 6 22 12 ESE 0,0
14.11.2019 12:00:00 6,0 3,3 5,9 14 8 25 14 E 0,0
14.11.2019 11:00:00 5,5 3,1 5,2 14 8 25 14 ESE 0,0
14.11.2019 10:00:00 4,6 3,1 4,0 11 6 22 12 ESE 0,0
14.11.2019 09:00:00 3,5 2,6 2,5 11 6 18 10 ESE 0,0
14.11.2019 08:00:00 2,8 2,2 1,8 11 6 18 10 E 0,0
14.11.2019 07:00:00 3,0 2,3 1,5 11 6 18 10 ESE 0,0
14.11.2019 06:00:00 2,7 2,2 1,2 7 4 14 8 ESE 0,0
14.11.2019 05:00:00 3,1 2,6 1,6 7 4 14 8 ESE 0,0
14.11.2019 04:00:00 3,2 2,9 1,4 11 6 14 8 ESE 0,0
14.11.2019 03:00:00 3,7 3,3 2,4 7 4 14 8 SE 0,0
14.11.2019 02:00:00 4,1 3,7 2,4 7 4 14 8 ESE 0,0
14.11.2019 01:00:00 4,8 4,1 3,4 7 4 14 8 SSE 0,0
14.11.2019 00:00:00 5,1 4,8 4,5 7 4 18 10 SSE 0,0
13.11.2019 23:00:00 4,7 4,6 3,9 7 4 11 6 SE 0,0
13.11.2019 22:00:00 4,6 4,2 3,3 7 4 25 14 SE 1,5
13.11.2019 21:00:00 4,6 4,1 3,7 7 4 14 8 S 0,0
13.11.2019 20:00:00 4,4 3,7 3,1 7 4 14 8 S 0,0
13.11.2019 19:00:00 5,0 3,3 3,9 7 4 18 10 S 0,0
13.11.2019 18:00:00 5,9 4,2 5,1 11 6 25 14 S 0,0
13.11.2019 17:00:00 6,2 4,3 5,4 11 6 18 10 SSW 0,0
13.11.2019 16:00:00 6,6 4,4 6,0 11 6 22 12 SW 0,0
13.11.2019 15:00:00 7,0 4,6 6,8 11 6 29 16 SSW 0,0
13.11.2019 14:00:00 7,0 4,7 6,7 18 10 50 27 SW 0,3
13.11.2019 13:00:00 9,2 6,4 9,6 22 12 32 18 SW 0,0
13.11.2019 12:00:00 8,6 6,8 8,3 14 8 25 14 SW 0,2
13.11.2019 11:00:00 7,6 5,9 7,9 14 8 25 14 SSW 0,0
13.11.2019 10:00:00 6,7 5,4 6,8 18 10 25 14 SSW 0,0
13.11.2019 09:00:00 6,0 5,2 5,9 14 8 29 16 SSW 0,0
13.11.2019 08:00:00 5,7 4,8 5,4 18 10 29 16 SSW 0,0
13.11.2019 07:00:00 5,3 4,6 4,8 18 10 32 18 SSW 0,0
13.11.2019 06:00:00 4,8 4,1 4,4 18 10 29 16 SSW 0,0
13.11.2019 05:00:00 4,4 3,6 4,2 18 10 32 18 S 0,2
13.11.2019 04:00:00 4,2 3,6 4,1 14 8 29 16 S 1,1
13.11.2019 03:00:00 4,5 3,0 4,3 14 8 32 18 S 0,1
13.11.2019 02:00:00 4,0 2,3 3,5 14 8 25 14 S 0,0
13.11.2019 01:00:00 3,5 1,8 2,7 14 8 29 16 S 0,0
13.11.2019 00:00:00 3,3 1,8 2,2 11 6 22 12 S 0,0
12.11.2019 23:00:00 3,6 1,9 2,4 11 6 25 14 S 0,0
12.11.2019 22:00:00 3,9 2,1 2,9 14 8 29 16 SSW 0,0
12.11.2019 21:00:00 3,5 2,1 2,4 11 6 22 12 S 0,0
12.11.2019 20:00:00 3,7 2,2 2,3 11 6 22 12 SSE 0,0
12.11.2019 19:00:00 4,0 2,3 2,1 11 6 18 10 SSE 0,0
12.11.2019 18:00:00 4,3 2,6 2,3 11 6 18 10 S 0,0
12.11.2019 17:00:00 4,3 3,1 2,9 7 4 14 8 S 0,0
12.11.2019 16:00:00 4,3 3,4 3,8 7 4 18 10 S 0,0
12.11.2019 15:00:00 4,2 3,2 4,3 14 8 40 21 SW 0,7
12.11.2019 14:00:00 6,1 3,4 6,3 14 8 32 18 S 0,0
12.11.2019 13:00:00 6,4 3,3 6,4 14 8 29 16 SSW 0,0
12.11.2019 12:00:00 5,4 4,0 5,2 11 6 22 12 S 0,1
12.11.2019 11:00:00 5,4 3,3 5,3 14 8 25 14 SSW 0,0
12.11.2019 10:00:00 5,2 3,2 5,2 14 8 29 16 SSW 0,0
12.11.2019 09:00:00 4,9 3,3 4,7 14 8 32 18 S 0,0
12.11.2019 08:00:00 4,6 3,4 4,5 18 10 36 19 SSW 0,0
12.11.2019 07:00:00 4,9 3,8 4,8 18 10 29 16 SSW 0,0
12.11.2019 06:00:00 4,8 4,1 4,7 14 8 36 19 SSW 0,6
12.11.2019 05:00:00 4,7 3,4 4,5 22 12 40 21 SW 0,9
12.11.2019 04:00:00 4,7 3,7 4,5 18 10 32 18 SSW 0,2
12.11.2019 03:00:00 4,3 3,1 3,9 18 10 29 16 SSW 0,3
12.11.2019 02:00:00 5,2 3,5 4,9 22 12 36 19 SSW 0,0
12.11.2019 01:00:00 5,2 3,9 4,7 14 8 29 16 SSW 0,0
12.11.2019 00:00:00 5,5 4,4 5,1 11 6 32 18 SSW 0,0

tt = Température de l'air
td = dewpoint
tt 5cm = Température de l'air 5cm
ff = Vitesse du vent
fx = gusts
dd = Direction du vent
rr = Quantités de précipitations

stations d'obs. à proximité